createdAt,value
2019-05-23T00:03:25.589Z,30.40
2019-05-23T00:08:28.101Z,30.33
2019-05-23T00:13:33.498Z,31.07
2019-05-23T00:18:35.982Z,30.33
2019-05-23T00:23:38.491Z,30.20
2019-05-23T00:28:41.021Z,25.47
2019-05-23T00:33:43.519Z,25.17
2019-05-23T00:38:46.029Z,27.37
2019-05-23T00:43:48.523Z,27.77
2019-05-23T00:48:51.022Z,23.50
2019-05-23T00:53:53.515Z,27.20
2019-05-23T00:58:56.080Z,28.50
2019-05-23T01:03:58.508Z,27.80
2019-05-23T01:09:01.004Z,31.13
2019-05-23T01:14:03.530Z,27.47
2019-05-23T01:19:06.025Z,29.07
2019-05-23T01:24:08.520Z,27.17
2019-05-23T01:29:11.049Z,24.63
2019-05-23T01:34:13.543Z,28.27
2019-05-23T01:39:16.042Z,28.20
2019-05-23T01:44:18.552Z,29.00
2019-05-23T01:49:21.035Z,24.33
2019-05-23T01:54:23.543Z,28.40
2019-05-23T01:59:26.048Z,29.83
2019-05-23T02:04:28.530Z,27.27
2019-05-23T02:09:31.019Z,33.47
2019-05-23T02:14:33.496Z,23.77
2019-05-23T02:19:35.979Z,27.47
2019-05-23T02:24:39.625Z,23.97
2019-05-23T02:29:40.982Z,22.77
2019-05-23T02:34:43.473Z,22.77
2019-05-23T02:39:49.047Z,23.27
2019-05-23T02:44:51.537Z,23.47
2019-05-23T02:49:54.021Z,23.67
2019-05-23T02:54:56.522Z,23.40
2019-05-23T02:59:59.094Z,22.77
2019-05-23T03:05:01.631Z,21.37
2019-05-23T03:10:04.105Z,21.67
2019-05-23T03:15:06.593Z,25.70
2019-05-23T03:20:09.080Z,27.47
2019-05-23T03:25:32.937Z,23.90
2019-05-23T03:30:35.618Z,25.47
2019-05-23T03:35:37.895Z,21.43
2019-05-23T03:40:40.395Z,22.97
2019-05-23T03:45:45.786Z,23.27
2019-05-23T03:50:48.252Z,22.47
2019-05-23T03:55:50.784Z,25.80
2019-05-23T04:00:56.162Z,21.37
2019-05-23T04:05:58.648Z,21.03
2019-05-23T04:11:01.141Z,21.03
2019-05-23T04:16:03.709Z,22.17
2019-05-23T04:21:06.117Z,22.13
2019-05-23T04:26:08.631Z,19.60
2019-05-23T04:31:13.139Z,19.20
2019-05-23T04:36:13.633Z,23.20
2019-05-23T04:41:16.128Z,22.20
2019-05-23T04:46:18.626Z,18.50
2019-05-23T04:51:21.135Z,19.37
2019-05-23T04:56:23.625Z,19.43
2019-05-23T05:01:26.131Z,18.93
2019-05-23T05:06:28.636Z,19.87
2019-05-23T05:11:31.169Z,19.07
2019-05-23T05:16:33.654Z,19.47
2019-05-23T05:21:36.155Z,22.77
2019-05-23T05:26:38.725Z,26.20
2019-05-23T05:31:41.202Z,23.63
2019-05-23T05:36:43.726Z,22.50
2019-05-23T05:41:46.220Z,23.03
2019-05-23T05:46:48.771Z,22.77
2019-05-23T05:51:51.249Z,26.00
2019-05-23T05:56:53.738Z,22.03
2019-05-23T06:01:56.247Z,20.83
2019-05-23T06:06:58.740Z,19.63
2019-05-23T06:12:01.306Z,21.00
2019-05-23T06:17:03.717Z,17.73
2019-05-23T06:22:06.206Z,18.93
2019-05-23T06:27:08.746Z,19.67
2019-05-23T06:32:11.273Z,20.93
2019-05-23T06:37:13.756Z,23.00
2019-05-23T06:42:16.276Z,21.33
2019-05-23T06:47:18.760Z,18.07
2019-05-23T06:52:21.256Z,21.03
2019-05-23T06:57:23.749Z,21.63
2019-05-23T07:02:26.283Z,23.03
2019-05-23T07:07:28.749Z,19.40
2019-05-23T07:12:31.238Z,19.17
2019-05-23T07:17:33.750Z,20.63
2019-05-23T07:22:36.251Z,18.27
2019-05-23T07:27:38.779Z,18.80
2019-05-23T07:32:41.272Z,19.33
2019-05-23T07:37:43.744Z,21.67
2019-05-23T07:42:46.241Z,19.17
2019-05-23T07:47:48.728Z,18.77
2019-05-23T07:52:51.241Z,19.40
2019-05-23T07:57:53.724Z,17.63
2019-05-23T08:02:56.249Z,18.90
2019-05-23T08:07:58.759Z,19.07
2019-05-23T08:13:01.250Z,15.53
2019-05-23T08:18:10.011Z,16.20
2019-05-23T08:23:12.539Z,19.70
2019-05-23T08:28:15.036Z,18.73
2019-05-23T08:33:17.567Z,15.20
2019-05-23T08:38:20.073Z,12.27
2019-05-23T08:43:22.574Z,12.93
2019-05-23T08:48:25.068Z,9.60
2019-05-23T08:53:27.553Z,11.27
2019-05-23T08:58:30.066Z,7.50
2019-05-23T09:03:32.539Z,7.95
2019-05-23T09:08:35.023Z,6.45
2019-05-23T09:13:37.512Z,6.43
2019-05-23T09:18:40.050Z,8.77
2019-05-23T09:23:42.571Z,6.40
2019-05-23T09:28:45.041Z,7.87
2019-05-23T09:33:47.517Z,6.68
2019-05-23T09:38:50.018Z,9.25
2019-05-23T09:43:52.490Z,8.52
2019-05-23T09:48:55.083Z,5.37
2019-05-23T09:53:57.491Z,6.07
2019-05-23T09:58:59.974Z,11.35
2019-05-23T10:04:02.473Z,4.80
2019-05-23T10:09:04.993Z,7.28
2019-05-23T10:14:07.466Z,7.60
2019-05-23T10:19:09.954Z,5.40
2019-05-23T10:24:12.452Z,10.73
2019-05-23T10:29:14.956Z,13.60
2019-05-23T10:34:17.447Z,8.90
2019-05-23T10:39:19.937Z,9.07
2019-05-23T10:44:22.424Z,8.60
2019-05-23T10:49:24.999Z,6.80
2019-05-23T10:54:27.543Z,7.07
2019-05-23T10:59:30.070Z,7.47
2019-05-23T11:04:32.570Z,6.53
2019-05-23T11:09:38.329Z,6.83
2019-05-23T11:14:37.566Z,8.13
2019-05-23T11:19:40.108Z,6.33
2019-05-23T11:24:42.550Z,8.70
2019-05-23T11:29:45.039Z,7.20
2019-05-23T11:34:47.524Z,7.97
2019-05-23T11:39:51.081Z,5.53
2019-05-23T11:44:52.494Z,5.63
2019-05-23T11:49:54.995Z,4.43
2019-05-23T11:54:57.484Z,5.87
2019-05-23T11:59:59.973Z,4.82
2019-05-23T12:05:02.494Z,5.30
2019-05-23T12:10:04.980Z,4.30
2019-05-23T12:15:07.474Z,5.50
2019-05-23T12:20:09.965Z,5.87
2019-05-23T12:25:22.005Z,4.22
2019-05-23T12:30:14.977Z,3.65
2019-05-23T12:35:17.458Z,4.00
2019-05-23T12:40:19.939Z,3.97
2019-05-23T12:45:22.425Z,3.90
2019-05-23T12:50:27.661Z,3.75
2019-05-23T12:55:30.150Z,3.30
2019-05-23T13:00:38.784Z,4.32
2019-05-23T13:05:41.276Z,7.97
2019-05-23T13:10:43.757Z,4.83
2019-05-23T13:15:46.267Z,4.43
2019-05-23T13:20:48.763Z,4.90
2019-05-23T13:25:51.293Z,3.75
2019-05-23T13:30:53.764Z,4.37
2019-05-23T13:35:56.241Z,4.40
2019-05-23T13:40:58.724Z,6.40
2019-05-23T13:46:01.250Z,4.70
2019-05-23T13:51:03.718Z,3.40
2019-05-23T13:56:06.194Z,4.23
2019-05-23T14:01:09.917Z,4.63
2019-05-23T14:06:11.197Z,4.90
2019-05-23T14:11:13.702Z,3.70
2019-05-23T14:16:16.202Z,5.27
2019-05-23T14:21:18.664Z,5.17
2019-05-23T14:26:21.165Z,5.10
2019-05-23T14:31:23.661Z,4.83
2019-05-23T14:36:26.183Z,9.20
2019-05-23T14:41:44.152Z,15.63
2019-05-23T14:46:31.360Z,5.93
2019-05-23T14:51:36.759Z,5.33
2019-05-23T14:56:39.207Z,5.40
2019-05-23T15:01:41.826Z,4.87
2019-05-23T15:06:44.306Z,4.57
2019-05-23T15:11:46.807Z,4.60
2019-05-23T15:16:49.297Z,5.57
2019-05-23T15:21:51.959Z,8.43
2019-05-23T15:26:54.267Z,5.23
2019-05-23T15:32:02.277Z,5.30
2019-05-23T15:36:59.273Z,4.30
2019-05-23T15:42:01.856Z,4.20
2019-05-23T15:47:04.293Z,4.20
2019-05-23T15:52:09.623Z,5.13
2019-05-23T15:57:18.109Z,4.27
2019-05-23T16:02:20.610Z,4.60
2019-05-23T16:07:23.093Z,8.33
2019-05-23T16:12:25.618Z,6.27
2019-05-23T16:17:28.086Z,7.23
2019-05-23T16:22:30.598Z,4.67
2019-05-23T16:27:33.097Z,4.53
2019-05-23T16:32:35.562Z,6.03
2019-05-23T16:37:38.071Z,4.20
2019-05-23T16:42:40.789Z,4.37
2019-05-23T16:47:43.376Z,4.80
2019-05-23T16:52:45.873Z,4.30
2019-05-23T16:57:48.409Z,3.47
2019-05-23T17:02:59.807Z,4.30
2019-05-23T17:08:05.213Z,13.43
2019-05-23T17:13:28.402Z,5.33
2019-05-23T17:18:29.527Z,4.83
2019-05-23T17:23:41.038Z,6.40
2019-05-23T17:28:55.615Z,3.93
2019-05-23T17:33:58.097Z,3.90
2019-05-23T17:39:00.762Z,5.53
2019-05-23T17:44:03.270Z,4.60
2019-05-23T17:49:05.769Z,4.10
2019-05-23T17:54:08.254Z,5.87
2019-05-23T17:59:10.939Z,4.00
2019-05-23T18:04:13.784Z,4.33
2019-05-23T18:09:16.297Z,4.40
2019-05-23T18:14:18.938Z,4.37
2019-05-23T18:19:21.411Z,4.70
2019-05-23T18:24:23.913Z,5.23
2019-05-23T18:29:26.480Z,4.00
2019-05-23T18:34:28.956Z,7.03
2019-05-23T18:39:31.455Z,4.10
2019-05-23T18:44:33.946Z,3.90
2019-05-23T18:49:36.488Z,5.17
2019-05-23T18:54:38.984Z,4.83
2019-05-23T18:59:41.464Z,5.33
2019-05-23T19:04:43.948Z,4.97
2019-05-23T19:09:46.428Z,5.97
2019-05-23T19:14:48.911Z,5.83
2019-05-23T19:19:51.403Z,5.90
2019-05-23T19:24:53.901Z,8.13
2019-05-23T19:29:56.395Z,6.80
2019-05-23T19:34:58.873Z,9.60
2019-05-23T19:40:01.371Z,7.30
2019-05-23T19:45:03.900Z,7.40
2019-05-23T19:50:06.421Z,8.30
2019-05-23T19:55:08.979Z,8.23
2019-05-23T20:00:17.381Z,11.17
2019-05-23T20:05:22.801Z,9.80
2019-05-23T20:10:25.300Z,8.53
2019-05-23T20:15:27.803Z,7.30
2019-05-23T20:20:30.322Z,7.67
2019-05-23T20:25:32.795Z,6.90
2019-05-23T20:30:41.333Z,7.43
2019-05-23T20:35:43.871Z,10.60
2019-05-23T20:40:46.455Z,6.37
2019-05-23T20:45:48.956Z,7.80
2019-05-23T20:50:51.502Z,7.13
2019-05-23T20:55:53.969Z,10.23
2019-05-23T21:00:56.456Z,11.07
2019-05-23T21:05:58.961Z,8.30
2019-05-23T21:11:01.445Z,12.20
2019-05-23T21:16:03.955Z,15.77
2019-05-23T21:21:06.492Z,13.90
2019-05-23T21:26:08.970Z,9.97
2019-05-23T21:31:11.466Z,8.37
2019-05-23T21:36:13.976Z,9.83
2019-05-23T21:41:16.477Z,12.80
2019-05-23T21:46:18.980Z,13.00
2019-05-23T21:51:21.495Z,13.50
2019-05-23T21:56:23.988Z,12.33
2019-05-23T22:01:26.482Z,13.97
2019-05-23T22:06:28.977Z,11.57
2019-05-23T22:11:31.474Z,11.20
2019-05-23T22:16:33.970Z,11.37
2019-05-23T22:21:36.469Z,11.23
2019-05-23T22:26:38.980Z,11.67
2019-05-23T22:31:41.490Z,10.23
2019-05-23T22:36:43.989Z,13.37
2019-05-23T22:41:46.479Z,11.17
2019-05-23T22:46:48.980Z,10.20
2019-05-23T22:51:51.535Z,10.90
2019-05-23T22:56:53.975Z,12.30
2019-05-23T23:01:56.535Z,14.13
2019-05-23T23:06:58.971Z,10.20
2019-05-23T23:12:01.559Z,10.30
2019-05-23T23:17:04.064Z,10.90
2019-05-23T23:22:06.558Z,10.10
2019-05-23T23:27:09.063Z,13.73
2019-05-23T23:32:11.632Z,10.33
2019-05-23T23:37:14.122Z,12.30
2019-05-23T23:42:16.596Z,9.53
2019-05-23T23:47:37.226Z,16.73
2019-05-23T23:52:57.513Z,11.70
2019-05-23T23:57:59.505Z,10.87
